sensor_id;sensor_type;location;lat;lon;timestamp;P1;durP1;ratioP1;P2;durP2;ratioP2
62580;SDS011;48640;48.770;9.148;2023-02-03T00:00:30;2.65;;;0.82;;
62580;SDS011;48640;48.770;9.148;2023-02-03T00:02:58;1.83;;;0.95;;
62580;SDS011;48640;48.770;9.148;2023-02-03T00:05:24;2.00;;;0.90;;
62580;SDS011;48640;48.770;9.148;2023-02-03T00:07:52;2.67;;;1.15;;
62580;SDS011;48640;48.770;9.148;2023-02-03T00:10:19;2.92;;;1.15;;
62580;SDS011;48640;48.770;9.148;2023-02-03T00:12:46;3.15;;;0.85;;
62580;SDS011;48640;48.770;9.148;2023-02-03T00:15:14;1.55;;;0.70;;
62580;SDS011;48640;48.770;9.148;2023-02-03T00:17:41;2.08;;;0.65;;
62580;SDS011;48640;48.770;9.148;2023-02-03T00:20:10;2.00;;;1.17;;
62580;SDS011;48640;48.770;9.148;2023-02-03T00:22:37;2.50;;;1.23;;
62580;SDS011;48640;48.770;9.148;2023-02-03T00:25:04;2.92;;;1.05;;
62580;SDS011;48640;48.770;9.148;2023-02-03T00:27:31;1.70;;;0.80;;
62580;SDS011;48640;48.770;9.148;2023-02-03T00:29:58;1.75;;;0.75;;
62580;SDS011;48640;48.770;9.148;2023-02-03T00:32:24;1.58;;;0.60;;
62580;SDS011;48640;48.770;9.148;2023-02-03T00:34:51;0.90;;;0.45;;
62580;SDS011;48640;48.770;9.148;2023-02-03T00:37:19;0.93;;;0.35;;
62580;SDS011;48640;48.770;9.148;2023-02-03T00:40:06;1.60;;;0.75;;
62580;SDS011;48640;48.770;9.148;2023-02-03T00:42:34;1.88;;;0.70;;
62580;SDS011;48640;48.770;9.148;2023-02-03T00:45:01;1.17;;;0.50;;
62580;SDS011;48640;48.770;9.148;2023-02-03T00:47:28;3.13;;;0.60;;
62580;SDS011;48640;48.770;9.148;2023-02-03T00:49:54;1.38;;;0.63;;
62580;SDS011;48640;48.770;9.148;2023-02-03T00:52:23;1.33;;;0.70;;
62580;SDS011;48640;48.770;9.148;2023-02-03T00:54:50;2.50;;;1.05;;
62580;SDS011;48640;48.770;9.148;2023-02-03T00:57:16;2.05;;;0.70;;
62580;SDS011;48640;48.770;9.148;2023-02-03T00:59:43;1.13;;;0.70;;
62580;SDS011;48640;48.770;9.148;2023-02-03T01:02:10;2.45;;;0.65;;
62580;SDS011;48640;48.770;9.148;2023-02-03T01:04:37;2.55;;;0.80;;
62580;SDS011;48640;48.770;9.148;2023-02-03T01:07:03;1.42;;;0.57;;
62580;SDS011;48640;48.770;9.148;2023-02-03T01:09:33;2.35;;;0.73;;
62580;SDS011;48640;48.770;9.148;2023-02-03T01:12:00;0.90;;;0.50;;
62580;SDS011;48640;48.770;9.148;2023-02-03T01:14:27;1.00;;;0.70;;
62580;SDS011;48640;48.770;9.148;2023-02-03T01:16:54;1.70;;;0.75;;
62580;SDS011;48640;48.770;9.148;2023-02-03T01:19:21;1.98;;;0.68;;
62580;SDS011;48640;48.770;9.148;2023-02-03T01:21:47;1.35;;;0.90;;
62580;SDS011;48640;48.770;9.148;2023-02-03T01:24:14;1.27;;;0.77;;
62580;SDS011;48640;48.770;9.148;2023-02-03T01:26:42;2.47;;;1.25;;
62580;SDS011;48640;48.770;9.148;2023-02-03T01:29:10;1.52;;;0.70;;
62580;SDS011;48640;48.770;9.148;2023-02-03T01:31:37;1.52;;;0.90;;
62580;SDS011;48640;48.770;9.148;2023-02-03T01:34:06;1.95;;;0.85;;
62580;SDS011;48640;48.770;9.148;2023-02-03T01:36:36;1.48;;;0.60;;
62580;SDS011;48640;48.770;9.148;2023-02-03T01:39:04;1.85;;;0.90;;
62580;SDS011;48640;48.770;9.148;2023-02-03T01:41:32;3.75;;;1.45;;
62580;SDS011;48640;48.770;9.148;2023-02-03T01:47:07;1.60;;;0.93;;
62580;SDS011;48640;48.770;9.148;2023-02-03T01:49:38;14.10;;;3.03;;
62580;SDS011;48640;48.770;9.148;2023-02-03T01:52:09;1.88;;;0.90;;
62580;SDS011;48640;48.770;9.148;2023-02-03T01:54:38;3.42;;;1.27;;
62580;SDS011;48640;48.770;9.148;2023-02-03T01:57:09;2.90;;;0.90;;
62580;SDS011;48640;48.770;9.148;2023-02-03T01:59:42;2.40;;;0.90;;
62580;SDS011;48640;48.770;9.148;2023-02-03T02:02:09;3.30;;;0.75;;
62580;SDS011;48640;48.770;9.148;2023-02-03T02:04:38;2.58;;;1.13;;
62580;SDS011;48640;48.770;9.148;2023-02-03T02:07:14;2.22;;;0.95;;
62580;SDS011;48640;48.770;9.148;2023-02-03T02:09:41;1.90;;;1.08;;
62580;SDS011;48640;48.770;9.148;2023-02-03T02:12:09;1.30;;;0.82;;
62580;SDS011;48640;48.770;9.148;2023-02-03T02:14:37;2.47;;;0.98;;
62580;SDS011;48640;48.770;9.148;2023-02-03T02:17:08;2.78;;;1.00;;
62580;SDS011;48640;48.770;9.148;2023-02-03T02:22:45;2.13;;;1.10;;
62580;SDS011;48640;48.770;9.148;2023-02-03T02:25:35;1.85;;;0.80;;
62580;SDS011;48640;48.770;9.148;2023-02-03T02:34:18;4.40;;;1.20;;
62580;SDS011;48640;48.770;9.148;2023-02-03T02:36:52;2.20;;;1.15;;
62580;SDS011;48640;48.770;9.148;2023-02-03T02:39:36;2.40;;;1.20;;
62580;SDS011;48640;48.770;9.148;2023-02-03T02:42:11;2.85;;;1.10;;
62580;SDS011;48640;48.770;9.148;2023-02-03T02:44:45;2.78;;;1.08;;
62580;SDS011;48640;48.770;9.148;2023-02-03T02:47:16;2.35;;;0.90;;
62580;SDS011;48640;48.770;9.148;2023-02-03T02:49:47;2.33;;;1.00;;
62580;SDS011;48640;48.770;9.148;2023-02-03T02:52:19;4.78;;;1.40;;
62580;SDS011;48640;48.770;9.148;2023-02-03T02:54:50;4.68;;;1.42;;
62580;SDS011;48640;48.770;9.148;2023-02-03T02:57:20;1.98;;;1.10;;
62580;SDS011;48640;48.770;9.148;2023-02-03T02:59:50;1.63;;;0.90;;
62580;SDS011;48640;48.770;9.148;2023-02-03T03:02:19;2.97;;;1.10;;
62580;SDS011;48640;48.770;9.148;2023-02-03T03:04:47;2.85;;;1.73;;
62580;SDS011;48640;48.770;9.148;2023-02-03T03:07:17;1.52;;;0.85;;
62580;SDS011;48640;48.770;9.148;2023-02-03T03:09:47;4.47;;;1.15;;
62580;SDS011;48640;48.770;9.148;2023-02-03T03:12:18;1.80;;;1.00;;
62580;SDS011;48640;48.770;9.148;2023-02-03T03:14:47;1.27;;;0.80;;
62580;SDS011;48640;48.770;9.148;2023-02-03T03:17:20;2.63;;;1.08;;
62580;SDS011;48640;48.770;9.148;2023-02-03T03:19:51;3.28;;;0.90;;
62580;SDS011;48640;48.770;9.148;2023-02-03T03:22:23;2.33;;;1.08;;
62580;SDS011;48640;48.770;9.148;2023-02-03T03:24:53;2.45;;;1.23;;
62580;SDS011;48640;48.770;9.148;2023-02-03T03:27:25;3.10;;;1.08;;
62580;SDS011;48640;48.770;9.148;2023-02-03T03:29:57;1.27;;;0.63;;
62580;SDS011;48640;48.770;9.148;2023-02-03T03:32:27;2.15;;;0.80;;
62580;SDS011;48640;48.770;9.148;2023-02-03T03:34:58;2.90;;;1.30;;
62580;SDS011;48640;48.770;9.148;2023-02-03T03:37:28;2.90;;;0.90;;
62580;SDS011;48640;48.770;9.148;2023-02-03T03:40:01;1.00;;;0.57;;
62580;SDS011;48640;48.770;9.148;2023-02-03T03:42:35;2.05;;;1.02;;
62580;SDS011;48640;48.770;9.148;2023-02-03T03:45:07;0.75;;;0.60;;
62580;SDS011;48640;48.770;9.148;2023-02-03T03:47:41;1.77;;;0.85;;
62580;SDS011;48640;48.770;9.148;2023-02-03T03:50:14;1.55;;;0.70;;
62580;SDS011;48640;48.770;9.148;2023-02-03T03:52:44;1.73;;;0.70;;
62580;SDS011;48640;48.770;9.148;2023-02-03T03:55:11;1.20;;;0.63;;
62580;SDS011;48640;48.770;9.148;2023-02-03T03:57:41;2.40;;;0.70;;
62580;SDS011;48640;48.770;9.148;2023-02-03T04:00:11;2.90;;;0.68;;
62580;SDS011;48640;48.770;9.148;2023-02-03T04:02:43;1.30;;;0.70;;
62580;SDS011;48640;48.770;9.148;2023-02-03T04:05:16;1.10;;;0.55;;
62580;SDS011;48640;48.770;9.148;2023-02-03T04:07:45;0.60;;;0.40;;
62580;SDS011;48640;48.770;9.148;2023-02-03T04:10:19;1.48;;;0.50;;
62580;SDS011;48640;48.770;9.148;2023-02-03T04:12:51;2.15;;;0.50;;
62580;SDS011;48640;48.770;9.148;2023-02-03T04:15:18;0.30;;;0.30;;
62580;SDS011;48640;48.770;9.148;2023-02-03T04:17:45;4.38;;;0.90;;
62580;SDS011;48640;48.770;9.148;2023-02-03T04:20:12;0.73;;;0.40;;
62580;SDS011;48640;48.770;9.148;2023-02-03T04:22:40;1.48;;;0.50;;
62580;SDS011;48640;48.770;9.148;2023-02-03T04:25:07;1.13;;;0.40;;
62580;SDS011;48640;48.770;9.148;2023-02-03T04:27:34;1.20;;;0.90;;
62580;SDS011;48640;48.770;9.148;2023-02-03T04:30:02;1.00;;;0.45;;
62580;SDS011;48640;48.770;9.148;2023-02-03T04:32:30;1.35;;;0.50;;
62580;SDS011;48640;48.770;9.148;2023-02-03T04:34:59;2.47;;;0.60;;
62580;SDS011;48640;48.770;9.148;2023-02-03T04:37:26;1.30;;;0.40;;
62580;SDS011;48640;48.770;9.148;2023-02-03T04:39:54;1.13;;;0.55;;
62580;SDS011;48640;48.770;9.148;2023-02-03T04:42:21;1.15;;;0.68;;
62580;SDS011;48640;48.770;9.148;2023-02-03T04:44:48;1.13;;;0.50;;
62580;SDS011;48640;48.770;9.148;2023-02-03T04:47:15;0.60;;;0.38;;
62580;SDS011;48640;48.770;9.148;2023-02-03T04:49:43;2.28;;;0.73;;
62580;SDS011;48640;48.770;9.148;2023-02-03T04:52:10;1.48;;;0.55;;
62580;SDS011;48640;48.770;9.148;2023-02-03T04:54:37;1.27;;;0.57;;
62580;SDS011;48640;48.770;9.148;2023-02-03T04:57:05;6.05;;;1.10;;
62580;SDS011;48640;48.770;9.148;2023-02-03T04:59:32;1.55;;;0.80;;
62580;SDS011;48640;48.770;9.148;2023-02-03T05:02:00;1.98;;;0.85;;
62580;SDS011;48640;48.770;9.148;2023-02-03T05:04:27;1.73;;;0.60;;
62580;SDS011;48640;48.770;9.148;2023-02-03T05:06:54;2.35;;;0.73;;
62580;SDS011;48640;48.770;9.148;2023-02-03T05:09:21;1.27;;;0.70;;
62580;SDS011;48640;48.770;9.148;2023-02-03T05:11:48;2.05;;;0.68;;
62580;SDS011;48640;48.770;9.148;2023-02-03T05:14:16;3.00;;;0.70;;
62580;SDS011;48640;48.770;9.148;2023-02-03T05:16:43;2.75;;;0.60;;
62580;SDS011;48640;48.770;9.148;2023-02-03T05:19:10;2.08;;;0.80;;
62580;SDS011;48640;48.770;9.148;2023-02-03T05:21:37;1.70;;;0.82;;
62580;SDS011;48640;48.770;9.148;2023-02-03T05:24:04;1.77;;;0.63;;
62580;SDS011;48640;48.770;9.148;2023-02-03T05:26:32;2.17;;;0.82;;
62580;SDS011;48640;48.770;9.148;2023-02-03T05:28:59;1.75;;;0.80;;
62580;SDS011;48640;48.770;9.148;2023-02-03T05:31:27;2.83;;;1.05;;
62580;SDS011;48640;48.770;9.148;2023-02-03T05:33:54;1.35;;;0.70;;
62580;SDS011;48640;48.770;9.148;2023-02-03T05:36:21;4.43;;;0.82;;
62580;SDS011;48640;48.770;9.148;2023-02-03T05:38:48;1.77;;;0.70;;
62580;SDS011;48640;48.770;9.148;2023-02-03T05:41:15;2.50;;;1.00;;
62580;SDS011;48640;48.770;9.148;2023-02-03T05:43:59;2.25;;;0.90;;
62580;SDS011;48640;48.770;9.148;2023-02-03T05:46:27;2.78;;;0.65;;
62580;SDS011;48640;48.770;9.148;2023-02-03T05:48:54;3.25;;;1.23;;
62580;SDS011;48640;48.770;9.148;2023-02-03T05:51:21;1.05;;;0.68;;
62580;SDS011;48640;48.770;9.148;2023-02-03T05:53:49;3.03;;;0.93;;
62580;SDS011;48640;48.770;9.148;2023-02-03T05:56:17;4.55;;;0.95;;
62580;SDS011;48640;48.770;9.148;2023-02-03T05:58:43;1.98;;;0.90;;
62580;SDS011;48640;48.770;9.148;2023-02-03T06:01:10;3.67;;;0.70;;
62580;SDS011;48640;48.770;9.148;2023-02-03T06:03:38;3.30;;;0.80;;
62580;SDS011;48640;48.770;9.148;2023-02-03T06:06:05;2.75;;;0.80;;
62580;SDS011;48640;48.770;9.148;2023-02-03T06:08:32;1.73;;;0.75;;
62580;SDS011;48640;48.770;9.148;2023-02-03T06:10:59;2.13;;;0.80;;
62580;SDS011;48640;48.770;9.148;2023-02-03T06:13:26;1.08;;;0.50;;
62580;SDS011;48640;48.770;9.148;2023-02-03T06:15:53;1.45;;;0.80;;
62580;SDS011;48640;48.770;9.148;2023-02-03T06:18:20;2.55;;;0.93;;
62580;SDS011;48640;48.770;9.148;2023-02-03T06:20:48;2.85;;;1.00;;
62580;SDS011;48640;48.770;9.148;2023-02-03T06:23:15;2.30;;;0.90;;
62580;SDS011;48640;48.770;9.148;2023-02-03T06:25:43;4.22;;;1.02;;
62580;SDS011;48640;48.770;9.148;2023-02-03T06:28:09;2.95;;;1.20;;
62580;SDS011;48640;48.770;9.148;2023-02-03T06:30:36;3.15;;;1.08;;
62580;SDS011;48640;48.770;9.148;2023-02-03T06:33:03;1.75;;;0.70;;
62580;SDS011;48640;48.770;9.148;2023-02-03T06:35:30;2.83;;;1.15;;
62580;SDS011;48640;48.770;9.148;2023-02-03T06:37:58;2.45;;;1.00;;
62580;SDS011;48640;48.770;9.148;2023-02-03T06:40:25;4.57;;;1.70;;
62580;SDS011;48640;48.770;9.148;2023-02-03T06:42:51;2.55;;;0.90;;
62580;SDS011;48640;48.770;9.148;2023-02-03T06:45:18;2.08;;;0.98;;
62580;SDS011;48640;48.770;9.148;2023-02-03T06:47:45;4.32;;;1.45;;
62580;SDS011;48640;48.770;9.148;2023-02-03T06:50:13;1.80;;;0.98;;
62580;SDS011;48640;48.770;9.148;2023-02-03T06:52:40;3.25;;;1.38;;
62580;SDS011;48640;48.770;9.148;2023-02-03T06:55:08;2.72;;;1.10;;
62580;SDS011;48640;48.770;9.148;2023-02-03T06:57:41;3.92;;;2.15;;
62580;SDS011;48640;48.770;9.148;2023-02-03T07:00:09;2.40;;;1.00;;
62580;SDS011;48640;48.770;9.148;2023-02-03T07:02:38;4.10;;;1.20;;
62580;SDS011;48640;48.770;9.148;2023-02-03T07:05:05;4.43;;;1.10;;
62580;SDS011;48640;48.770;9.148;2023-02-03T07:07:32;2.42;;;0.88;;
62580;SDS011;48640;48.770;9.148;2023-02-03T07:09:59;1.70;;;0.70;;
62580;SDS011;48640;48.770;9.148;2023-02-03T07:12:28;1.52;;;0.70;;
62580;SDS011;48640;48.770;9.148;2023-02-03T07:14:54;3.38;;;1.00;;
62580;SDS011;48640;48.770;9.148;2023-02-03T07:17:21;4.18;;;1.08;;
62580;SDS011;48640;48.770;9.148;2023-02-03T07:19:48;2.38;;;0.77;;
62580;SDS011;48640;48.770;9.148;2023-02-03T07:22:15;3.30;;;1.02;;
62580;SDS011;48640;48.770;9.148;2023-02-03T07:24:41;2.00;;;1.15;;
62580;SDS011;48640;48.770;9.148;2023-02-03T07:27:08;3.30;;;0.80;;
62580;SDS011;48640;48.770;9.148;2023-02-03T07:29:36;2.92;;;0.98;;
62580;SDS011;48640;48.770;9.148;2023-02-03T07:32:03;3.47;;;1.20;;
62580;SDS011;48640;48.770;9.148;2023-02-03T07:34:30;3.20;;;1.20;;
62580;SDS011;48640;48.770;9.148;2023-02-03T07:36:57;5.38;;;1.23;;
62580;SDS011;48640;48.770;9.148;2023-02-03T07:39:24;2.40;;;0.70;;
62580;SDS011;48640;48.770;9.148;2023-02-03T07:41:51;3.15;;;1.25;;
62580;SDS011;48640;48.770;9.148;2023-02-03T07:44:18;4.40;;;1.40;;
62580;SDS011;48640;48.770;9.148;2023-02-03T07:46:46;5.43;;;2.25;;
62580;SDS011;48640;48.770;9.148;2023-02-03T07:49:13;4.13;;;1.25;;
62580;SDS011;48640;48.770;9.148;2023-02-03T07:51:40;3.13;;;1.17;;
62580;SDS011;48640;48.770;9.148;2023-02-03T07:54:06;3.28;;;1.30;;
62580;SDS011;48640;48.770;9.148;2023-02-03T07:56:33;6.22;;;1.30;;
62580;SDS011;48640;48.770;9.148;2023-02-03T07:59:00;3.17;;;1.00;;
62580;SDS011;48640;48.770;9.148;2023-02-03T08:01:27;3.10;;;1.20;;
62580;SDS011;48640;48.770;9.148;2023-02-03T08:03:56;3.83;;;1.30;;
62580;SDS011;48640;48.770;9.148;2023-02-03T08:06:26;2.17;;;1.20;;
62580;SDS011;48640;48.770;9.148;2023-02-03T08:08:54;2.95;;;1.55;;
62580;SDS011;48640;48.770;9.148;2023-02-03T08:11:21;2.25;;;1.42;;
62580;SDS011;48640;48.770;9.148;2023-02-03T08:13:48;3.05;;;1.55;;
62580;SDS011;48640;48.770;9.148;2023-02-03T08:16:15;5.40;;;1.65;;
62580;SDS011;48640;48.770;9.148;2023-02-03T08:18:41;4.10;;;1.42;;
62580;SDS011;48640;48.770;9.148;2023-02-03T08:21:09;5.40;;;1.95;;
62580;SDS011;48640;48.770;9.148;2023-02-03T08:23:36;2.70;;;1.40;;
62580;SDS011;48640;48.770;9.148;2023-02-03T08:26:03;5.97;;;1.65;;
62580;SDS011;48640;48.770;9.148;2023-02-03T08:28:30;4.32;;;1.35;;
62580;SDS011;48640;48.770;9.148;2023-02-03T08:30:57;4.32;;;1.48;;
62580;SDS011;48640;48.770;9.148;2023-02-03T08:33:24;5.20;;;1.27;;
62580;SDS011;48640;48.770;9.148;2023-02-03T08:35:51;5.20;;;2.30;;
62580;SDS011;48640;48.770;9.148;2023-02-03T08:38:19;3.97;;;1.60;;
62580;SDS011;48640;48.770;9.148;2023-02-03T08:40:46;5.80;;;2.30;;
62580;SDS011;48640;48.770;9.148;2023-02-03T08:43:13;5.30;;;1.75;;
62580;SDS011;48640;48.770;9.148;2023-02-03T08:45:40;3.10;;;1.60;;
62580;SDS011;48640;48.770;9.148;2023-02-03T08:48:07;6.97;;;2.15;;
62580;SDS011;48640;48.770;9.148;2023-02-03T08:50:33;6.15;;;1.65;;
62580;SDS011;48640;48.770;9.148;2023-02-03T08:53:00;3.45;;;1.58;;
62580;SDS011;48640;48.770;9.148;2023-02-03T08:55:28;2.88;;;1.40;;
62580;SDS011;48640;48.770;9.148;2023-02-03T08:57:55;3.85;;;1.88;;
62580;SDS011;48640;48.770;9.148;2023-02-03T09:00:22;3.10;;;1.75;;
62580;SDS011;48640;48.770;9.148;2023-02-03T09:02:49;6.82;;;2.65;;
62580;SDS011;48640;48.770;9.148;2023-02-03T09:05:16;2.83;;;1.52;;
62580;SDS011;48640;48.770;9.148;2023-02-03T09:07:43;6.32;;;2.22;;
62580;SDS011;48640;48.770;9.148;2023-02-03T09:10:09;4.10;;;2.00;;
62580;SDS011;48640;48.770;9.148;2023-02-03T09:12:37;4.25;;;1.40;;
62580;SDS011;48640;48.770;9.148;2023-02-03T09:15:04;4.22;;;1.70;;
62580;SDS011;48640;48.770;9.148;2023-02-03T09:17:32;3.88;;;1.83;;
62580;SDS011;48640;48.770;9.148;2023-02-03T09:19:58;4.32;;;1.60;;
62580;SDS011;48640;48.770;9.148;2023-02-03T09:22:25;5.78;;;2.20;;
62580;SDS011;48640;48.770;9.148;2023-02-03T09:24:52;5.07;;;1.70;;
62580;SDS011;48640;48.770;9.148;2023-02-03T09:27:19;3.85;;;1.50;;
62580;SDS011;48640;48.770;9.148;2023-02-03T09:29:47;4.35;;;1.95;;
62580;SDS011;48640;48.770;9.148;2023-02-03T09:32:14;4.63;;;1.60;;
62580;SDS011;48640;48.770;9.148;2023-02-03T09:34:40;4.15;;;1.63;;
62580;SDS011;48640;48.770;9.148;2023-02-03T09:37:07;2.95;;;1.52;;
62580;SDS011;48640;48.770;9.148;2023-02-03T09:39:34;5.38;;;1.60;;
62580;SDS011;48640;48.770;9.148;2023-02-03T09:42:08;4.28;;;1.70;;
62580;SDS011;48640;48.770;9.148;2023-02-03T09:45:02;3.92;;;1.40;;
62580;SDS011;48640;48.770;9.148;2023-02-03T09:47:36;3.25;;;1.80;;
62580;SDS011;48640;48.770;9.148;2023-02-03T09:50:07;4.40;;;1.60;;
62580;SDS011;48640;48.770;9.148;2023-02-03T09:52:39;3.33;;;1.40;;
62580;SDS011;48640;48.770;9.148;2023-02-03T09:55:10;2.75;;;1.50;;
62580;SDS011;48640;48.770;9.148;2023-02-03T09:57:46;2.97;;;1.70;;
62580;SDS011;48640;48.770;9.148;2023-02-03T10:00:22;3.38;;;1.52;;
62580;SDS011;48640;48.770;9.148;2023-02-03T10:02:55;2.90;;;1.30;;
62580;SDS011;48640;48.770;9.148;2023-02-03T10:05:28;6.03;;;1.33;;
62580;SDS011;48640;48.770;9.148;2023-02-03T10:08:06;3.75;;;1.40;;
62580;SDS011;48640;48.770;9.148;2023-02-03T10:10:45;2.72;;;1.40;;
62580;SDS011;48640;48.770;9.148;2023-02-03T10:13:33;2.17;;;1.17;;
62580;SDS011;48640;48.770;9.148;2023-02-03T10:19:06;4.00;;;1.30;;
62580;SDS011;48640;48.770;9.148;2023-02-03T10:21:37;2.80;;;1.55;;
62580;SDS011;48640;48.770;9.148;2023-02-03T10:24:09;3.72;;;1.00;;
62580;SDS011;48640;48.770;9.148;2023-02-03T10:26:40;2.75;;;1.27;;
62580;SDS011;48640;48.770;9.148;2023-02-03T10:29:17;4.40;;;1.30;;
62580;SDS011;48640;48.770;9.148;2023-02-03T10:31:46;3.28;;;1.58;;
62580;SDS011;48640;48.770;9.148;2023-02-03T10:34:14;4.20;;;1.30;;
62580;SDS011;48640;48.770;9.148;2023-02-03T10:36:52;4.40;;;1.30;;
62580;SDS011;48640;48.770;9.148;2023-02-03T10:39:23;2.50;;;1.00;;
62580;SDS011;48640;48.770;9.148;2023-02-03T10:41:56;2.90;;;1.33;;
62580;SDS011;48640;48.770;9.148;2023-02-03T10:44:24;3.10;;;0.95;;
62580;SDS011;48640;48.770;9.148;2023-02-03T10:46:58;2.97;;;1.00;;
62580;SDS011;48640;48.770;9.148;2023-02-03T10:49:25;2.90;;;1.33;;
62580;SDS011;48640;48.770;9.148;2023-02-03T10:51:54;1.80;;;0.70;;
62580;SDS011;48640;48.770;9.148;2023-02-03T10:54:29;3.17;;;0.73;;
62580;SDS011;48640;48.770;9.148;2023-02-03T10:57:02;2.15;;;0.65;;
62580;SDS011;48640;48.770;9.148;2023-02-03T10:59:32;2.95;;;0.70;;
62580;SDS011;48640;48.770;9.148;2023-02-03T11:02:07;1.98;;;0.75;;
62580;SDS011;48640;48.770;9.148;2023-02-03T11:04:35;2.97;;;0.80;;
62580;SDS011;48640;48.770;9.148;2023-02-03T11:07:03;1.67;;;0.80;;
62580;SDS011;48640;48.770;9.148;2023-02-03T11:09:32;1.70;;;0.80;;
62580;SDS011;48640;48.770;9.148;2023-02-03T11:12:05;1.88;;;0.90;;
62580;SDS011;48640;48.770;9.148;2023-02-03T11:14:35;1.17;;;0.50;;
62580;SDS011;48640;48.770;9.148;2023-02-03T11:17:04;4.10;;;1.55;;
62580;SDS011;48640;48.770;9.148;2023-02-03T11:19:35;2.35;;;0.80;;
62580;SDS011;48640;48.770;9.148;2023-02-03T11:22:03;0.70;;;0.50;;
62580;SDS011;48640;48.770;9.148;2023-02-03T11:24:31;1.38;;;0.60;;
62580;SDS011;48640;48.770;9.148;2023-02-03T11:27:02;1.65;;;0.70;;
62580;SDS011;48640;48.770;9.148;2023-02-03T11:29:32;0.95;;;0.50;;
62580;SDS011;48640;48.770;9.148;2023-02-03T11:32:00;1.55;;;0.65;;
62580;SDS011;48640;48.770;9.148;2023-02-03T11:34:32;0.67;;;0.40;;
62580;SDS011;48640;48.770;9.148;2023-02-03T11:37:09;0.70;;;0.38;;
62580;SDS011;48640;48.770;9.148;2023-02-03T11:39:50;2.53;;;0.85;;
62580;SDS011;48640;48.770;9.148;2023-02-03T11:42:20;2.17;;;0.80;;
62580;SDS011;48640;48.770;9.148;2023-02-03T11:44:48;0.82;;;0.50;;
62580;SDS011;48640;48.770;9.148;2023-02-03T11:47:15;1.30;;;0.50;;
62580;SDS011;48640;48.770;9.148;2023-02-03T11:52:44;0.93;;;0.50;;
62580;SDS011;48640;48.770;9.148;2023-02-03T11:55:26;0.80;;;0.40;;
62580;SDS011;48640;48.770;9.148;2023-02-03T11:58:04;3.35;;;0.60;;
62580;SDS011;48640;48.770;9.148;2023-02-03T12:00:48;1.38;;;0.68;;
62580;SDS011;48640;48.770;9.148;2023-02-03T12:03:31;2.03;;;0.65;;
62580;SDS011;48640;48.770;9.148;2023-02-03T12:06:16;3.63;;;1.02;;
62580;SDS011;48640;48.770;9.148;2023-02-03T12:08:57;1.45;;;0.40;;
62580;SDS011;48640;48.770;9.148;2023-02-03T12:11:49;1.73;;;0.68;;
62580;SDS011;48640;48.770;9.148;2023-02-03T12:14:28;0.45;;;0.28;;
62580;SDS011;48640;48.770;9.148;2023-02-03T12:17:09;1.25;;;0.55;;
62580;SDS011;48640;48.770;9.148;2023-02-03T12:20:00;1.10;;;0.40;;
62580;SDS011;48640;48.770;9.148;2023-02-03T12:22:40;1.85;;;0.60;;
62580;SDS011;48640;48.770;9.148;2023-02-03T12:25:19;0.95;;;0.63;;
62580;SDS011;48640;48.770;9.148;2023-02-03T12:27:59;1.23;;;0.50;;
62580;SDS011;48640;48.770;9.148;2023-02-03T12:30:33;0.40;;;0.30;;
62580;SDS011;48640;48.770;9.148;2023-02-03T12:33:05;1.13;;;0.57;;
62580;SDS011;48640;48.770;9.148;2023-02-03T12:35:39;2.50;;;1.00;;
62580;SDS011;48640;48.770;9.148;2023-02-03T12:38:16;1.20;;;0.73;;
62580;SDS011;48640;48.770;9.148;2023-02-03T12:40:52;1.00;;;0.50;;
62580;SDS011;48640;48.770;9.148;2023-02-03T12:43:24;0.70;;;0.40;;
62580;SDS011;48640;48.770;9.148;2023-02-03T12:46:02;1.73;;;0.88;;
62580;SDS011;48640;48.770;9.148;2023-02-03T12:48:35;2.45;;;0.80;;
62580;SDS011;48640;48.770;9.148;2023-02-03T12:51:10;1.75;;;0.52;;
62580;SDS011;48640;48.770;9.148;2023-02-03T12:53:41;1.02;;;0.40;;
62580;SDS011;48640;48.770;9.148;2023-02-03T12:56:13;1.27;;;0.70;;
62580;SDS011;48640;48.770;9.148;2023-02-03T12:58:44;2.08;;;0.60;;
62580;SDS011;48640;48.770;9.148;2023-02-03T13:01:18;1.17;;;0.50;;
62580;SDS011;48640;48.770;9.148;2023-02-03T13:03:48;1.20;;;0.55;;
62580;SDS011;48640;48.770;9.148;2023-02-03T13:06:21;0.80;;;0.43;;
62580;SDS011;48640;48.770;9.148;2023-02-03T13:08:55;2.17;;;0.50;;
62580;SDS011;48640;48.770;9.148;2023-02-03T13:11:27;0.60;;;0.32;;
62580;SDS011;48640;48.770;9.148;2023-02-03T13:14:04;0.32;;;0.30;;
62580;SDS011;48640;48.770;9.148;2023-02-03T13:16:38;1.27;;;0.60;;
62580;SDS011;48640;48.770;9.148;2023-02-03T13:19:10;0.90;;;0.50;;
62580;SDS011;48640;48.770;9.148;2023-02-03T13:21:42;0.93;;;0.45;;
62580;SDS011;48640;48.770;9.148;2023-02-03T13:24:11;2.60;;;0.98;;
62580;SDS011;48640;48.770;9.148;2023-02-03T13:26:48;1.13;;;0.50;;
62580;SDS011;48640;48.770;9.148;2023-02-03T13:29:34;1.23;;;0.57;;
62580;SDS011;48640;48.770;9.148;2023-02-03T13:32:16;0.70;;;0.30;;
62580;SDS011;48640;48.770;9.148;2023-02-03T13:34:58;1.05;;;0.45;;
62580;SDS011;48640;48.770;9.148;2023-02-03T13:37:45;0.95;;;0.50;;
62580;SDS011;48640;48.770;9.148;2023-02-03T13:40:29;1.38;;;0.50;;
62580;SDS011;48640;48.770;9.148;2023-02-03T13:43:03;1.80;;;0.77;;
62580;SDS011;48640;48.770;9.148;2023-02-03T13:45:39;0.70;;;0.40;;
62580;SDS011;48640;48.770;9.148;2023-02-03T13:48:10;1.33;;;0.40;;
62580;SDS011;48640;48.770;9.148;2023-02-03T13:50:41;2.95;;;0.73;;
62580;SDS011;48640;48.770;9.148;2023-02-03T13:53:14;0.73;;;0.40;;
62580;SDS011;48640;48.770;9.148;2023-02-03T13:55:50;0.57;;;0.50;;
62580;SDS011;48640;48.770;9.148;2023-02-03T13:58:20;1.08;;;0.60;;
62580;SDS011;48640;48.770;9.148;2023-02-03T14:00:58;1.35;;;0.88;;
62580;SDS011;48640;48.770;9.148;2023-02-03T14:03:40;0.88;;;0.50;;
62580;SDS011;48640;48.770;9.148;2023-02-03T14:09:21;1.42;;;0.50;;
62580;SDS011;48640;48.770;9.148;2023-02-03T14:14:57;0.55;;;0.38;;
62580;SDS011;48640;48.770;9.148;2023-02-03T14:17:54;0.47;;;0.22;;
62580;SDS011;48640;48.770;9.148;2023-02-03T14:20:38;0.90;;;0.40;;
62580;SDS011;48640;48.770;9.148;2023-02-03T14:23:19;0.85;;;0.43;;
62580;SDS011;48640;48.770;9.148;2023-02-03T14:25:58;0.55;;;0.30;;
62580;SDS011;48640;48.770;9.148;2023-02-03T14:28:38;1.15;;;0.57;;
62580;SDS011;48640;48.770;9.148;2023-02-03T14:31:11;1.85;;;0.70;;
62580;SDS011;48640;48.770;9.148;2023-02-03T14:39:36;0.85;;;0.40;;
62580;SDS011;48640;48.770;9.148;2023-02-03T14:42:33;0.70;;;0.50;;
62580;SDS011;48640;48.770;9.148;2023-02-03T14:45:15;0.80;;;0.50;;
62580;SDS011;48640;48.770;9.148;2023-02-03T14:47:53;0.57;;;0.28;;
62580;SDS011;48640;48.770;9.148;2023-02-03T14:50:36;2.67;;;0.40;;
62580;SDS011;48640;48.770;9.148;2023-02-03T14:53:18;1.55;;;0.50;;
62580;SDS011;48640;48.770;9.148;2023-02-03T14:55:59;1.23;;;0.47;;
62580;SDS011;48640;48.770;9.148;2023-02-03T14:58:40;0.82;;;0.30;;
62580;SDS011;48640;48.770;9.148;2023-02-03T15:01:23;0.70;;;0.45;;
62580;SDS011;48640;48.770;9.148;2023-02-03T15:06:51;1.58;;;0.40;;
62580;SDS011;48640;48.770;9.148;2023-02-03T15:09:22;0.80;;;0.30;;
62580;SDS011;48640;48.770;9.148;2023-02-03T15:11:52;0.43;;;0.30;;
62580;SDS011;48640;48.770;9.148;2023-02-03T15:14:20;1.13;;;0.40;;
62580;SDS011;48640;48.770;9.148;2023-02-03T15:21:48;0.60;;;0.30;;
62580;SDS011;48640;48.770;9.148;2023-02-03T15:24:15;0.80;;;0.43;;
62580;SDS011;48640;48.770;9.148;2023-02-03T15:26:46;3.58;;;0.70;;
62580;SDS011;48640;48.770;9.148;2023-02-03T15:29:19;1.05;;;0.50;;
62580;SDS011;48640;48.770;9.148;2023-02-03T15:31:51;1.60;;;0.57;;
62580;SDS011;48640;48.770;9.148;2023-02-03T15:34:25;0.65;;;0.35;;
62580;SDS011;48640;48.770;9.148;2023-02-03T15:36:55;1.40;;;0.60;;
62580;SDS011;48640;48.770;9.148;2023-02-03T15:39:32;0.75;;;0.40;;
62580;SDS011;48640;48.770;9.148;2023-02-03T15:42:07;1.38;;;0.50;;
62580;SDS011;48640;48.770;9.148;2023-02-03T15:44:40;1.85;;;0.50;;
62580;SDS011;48640;48.770;9.148;2023-02-03T15:47:18;2.47;;;0.60;;